YGFNYBUD

Guest
Details From YGFN - Grafton
To YBUD - Bundaberg
Flight Number -
Tags generated
Created
Modified
Stats Distance 321 nm / 594 km
Max Altitude 35,000 ft / 10,668 m
Waypoints 7
Social Downloads 1
Likes 0
Share VATSIM

Download

Looking for another format? Having issues loading an existing format? Contact us
Advertisement - Login to hide

Notes

Basic altitude profile: - Ascent Rate: 2500ft/min - Ascent Speed: 250kts - Cruise Altitude: 35000ft - Cruise Speed: 420kts - Descent Rate: 1500ft/min - Descent Speed: 250kts Options: - Use NATs: yes - Use PACOTS: yes - Use low airways: yes - Use high airways: yes

Route

YGFN LAV H62 BN Q26 LOAFA YBUD

ID Type Via Altitude Latitude Longitude Leg Dist Tot Dist Heading (true) Name
O YGFN APT - 0 ft / 0 m -29.75477˚ 153.03116˚ - 0 nm - Grafton
LAV VOR - 34,000 ft / 10,363 m -28.08982˚ 152.92479˚ 100 nm 100 nm 357° / 357° LARAVALE VOR
WIZZA FIX H62 (AWY-HI) 35,000 ft / 10,668 m -27.67306˚ 153.04861˚ 25 nm 126 nm 15° / 15° -
BN VOR H62 (AWY-HI) 35,000 ft / 10,668 m -27.36583˚ 153.13917˚ 19 nm 145 nm 15° / 15° BRISBANE VOR-DME
CORAL FIX Q26 (AWY-HI) 25,900 ft / 7,894 m -26.54778˚ 153.31944˚ 50 nm 195 nm 11° / 11° -
LOAFA FIX Q26 (AWY-LO) 18,000 ft / 5,486 m -25.03472˚ 152.11083˚ 111 nm 307 nm 324° / 325° -
O YBUD APT - 0 ft / 0 m -24.90342˚ 152.32022˚ 13 nm 320 nm 55° / 55° Bundaberg

Altitude Profile

Advertisement - Login to hide

Weather


0- 5 10 15 20 25 30 35+ Temperature / ° C

Clouds and Precipitation
Forecast for 2017-12-11 12:00 UTC. Updated 34 minutes ago

Ground ~20,000 ft ~40,000 ft Winds

YGFN

Details ICAO YGFN (GFN)
Name Grafton
Region Australia
Timezone Australia/Sydney (UTC+11.0)
Stats Elevation 110 ft / 34 m (AMSL)
Location -29.754771° 153.031156°
Runways 1
Magnetic Variation 11.700° E

METAR

YGFN 110900Z AUTO 15006KT 9999 // SCT030 SCT053 21/14 Q1018

Decode

TAF

Not found

Departure Runways

ID Width Length Bearing (true) Bearing (mag) Surface Threshold Offset Overrun Length
18 98 ft / 30 m 5,618 ft / 1,712 m 185.20° 173.50° Asphalt 0 ft / 0 m 0 ft / 0 m
36 98 ft / 30 m 5,618 ft / 1,712 m 5.20° 353.50° Asphalt 0 ft / 0 m 0 ft / 0 m

YBUD

Details ICAO YBUD (BDB)
Name Bundaberg
Region Australia
Timezone Australia/Brisbane (UTC+10.0)
Stats Elevation 106 ft / 32 m (AMSL)
Location -24.903419° 152.320218°
Runways 2
Magnetic Variation 10.077° E

METAR

YBUD 110900Z AUTO 12009KT 9999 // NCD 24/19 Q1014

Decode

TAF

Not found

Destination Runways

ID Width Length Bearing (true) Bearing (mag) Surface Threshold Offset Overrun Length
07 95 ft / 29 m 3,704 ft / 1,129 m 68.50° 58.42° Grass 0 ft / 0 m 0 ft / 0 m
14 98 ft / 30 m 5,042 ft / 1,537 m 147.90° 137.82° Asphalt 331 ft / 101 m 30 ft / 9 m
25 95 ft / 29 m 3,704 ft / 1,129 m 248.50° 238.42° Grass 0 ft / 0 m 0 ft / 0 m
32 98 ft / 30 m 5,042 ft / 1,537 m 327.90° 317.82° Asphalt 0 ft / 0 m 39 ft / 12 m